Camellia — VRCP9 — position and weather

sailwx.info

Track history (hours):
 
Tides and Currents Weather Stations Pressure Air Temp Water Temp Dewpoint Dewpoint Depression Visibility Wind Speed Wind Dir Waves Ship Positions

Camellia

Last reported at 2016-Feb-07 06:18 UTC. Time now 2016-Feb-08 10:18 UTC.
Position N 35°56' W 005°55'.

Length 222 m; draft 8.5 m.

Type: Ship (hazmat cat C). MMSI: 477791900.

Date/timePositionNaut miles runAvg speedWind from/ knotsBaromVisibWave heightAir tempDewpointWater temp
2016-Feb-07 06:18N 35°56' W 005°55'1317.3
2016-Feb-07 05:33N 35°58' W 005°39'1110.6
2016-Feb-07 04:33N 36°00' W 005°27'8 8.4
2016-Feb-07 03:34N 36°08' W 005°24'1 0.7
2016-Feb-07 02:28N 36°09' W 005°24'0 0.0
2016-Feb-07 01:31N 36°09' W 005°24'0 0.0
2016-Feb-06 23:13N 36°09' W 005°24'0 0.1
2016-Feb-06 22:31N 36°09' W 005°24'0 0.0
2016-Feb-06 20:07N 36°09' W 005°24'0 0.2
2016-Feb-06 19:28N 36°09' W 005°24'1 1.3
2016-Feb-06 18:33N 36°08' W 005°24'8 7.6
2016-Feb-06 17:33N 36°02' W 005°18'9 7.3
2016-Feb-06 16:18N 35°58' W 005°08'2 2.2
2016-Feb-06 15:32N 35°58' W 005°10'2 1.8
2016-Feb-06 14:33N 35°58' W 005°12'1 1.2
2016-Feb-06 13:33N 35°58' W 005°13'4 3.5
2016-Feb-06 12:33N 35°57' W 005°09'2 1.6
2016-Feb-06 11:33N 35°57' W 005°11'1 0.8
2016-Feb-06 10:33N 35°58' W 005°11'3 2.2
2016-Feb-06 09:19N 35°58' W 005°08'1 1.1
2016-Feb-06 08:32N 35°58' W 005°09'1 1.0
2016-Feb-06 07:33N 35°58' W 005°10'1 0.9
2016-Feb-06 06:33N 35°58' W 005°11'1 1.0
2016-Feb-06 05:33N 35°58' W 005°13'0 0.4
2016-Feb-06 04:33N 35°58' W 005°13'2 2.2
2016-Feb-06 03:33N 35°56' W 005°12'1 0.9
2016-Feb-06 02:33N 35°57' W 005°13'1 0.9
2016-Feb-06 01:33N 35°57' W 005°13'1 0.8
2016-Feb-06 00:33N 35°58' W 005°14'1 0.6
2016-Feb-05 23:33N 35°58' W 005°15'4 4.4
2016-Feb-05 22:34N 35°58' W 005°20'9 8.9
2016-Feb-05 21:33N 35°54' W 005°30'4 0.4
2016-Feb-05 12:19N 35°57' W 005°33'1114.2
2016-Feb-05 11:33N 36°02' W 005°21'91519.3
2016-Feb-03 12:04N 36°12' E 013°32'1119.8
2016-Feb-03 11:32N 36°06' E 013°43'2020.2
2016-Feb-03 10:33N 35°56' E 014°03'2019.8
2016-Feb-03 09:33N 35°45' E 014°24'8 7.8
2016-Feb-03 08:32N 35°49' E 014°33'0 0.0
2016-Feb-03 07:30N 35°49' E 014°33'0 0.0
2016-Feb-03 06:33N 35°49' E 014°33'0 0.0
2016-Feb-03 05:29N 35°49' E 014°33'0 0.0
2016-Feb-03 04:32N 35°49' E 014°33'0 0.0
2016-Feb-03 03:29N 35°49' E 014°33'0 0.0
2016-Feb-03 02:29N 35°49' E 014°33'0 0.0
2016-Feb-03 01:32N 35°49' E 014°33'0 0.0
2016-Feb-03 00:32N 35°49' E 014°33'0 0.0
2016-Feb-02 23:32N 35°49' E 014°33'0 0.0
2016-Feb-02 22:20N 35°49' E 014°33'0 0.0
2016-Feb-02 21:29N 35°49' E 014°33'0 0.0
2016-Feb-02 20:29N 35°49' E 014°33'0 0.0
2016-Feb-02 19:32N 35°49' E 014°33'0 0.0
2016-Feb-02 18:29N 35°49' E 014°33'0 0.0
2016-Feb-02 17:32N 35°49' E 014°33'0 0.0
2016-Feb-02 16:32N 35°49' E 014°33'0 0.0
2016-Feb-02 15:32N 35°49' E 014°33'0 0.0
2016-Feb-02 14:32N 35°49' E 014°33'0 0.0
2016-Feb-02 13:29N 35°49' E 014°33'0 0.0
2016-Feb-02 10:23N 35°49' E 014°33'0 0.0
2016-Feb-02 08:29N 35°49' E 014°33'0 0.0
2016-Feb-02 07:32N 35°49' E 014°33'0 0.0
2016-Feb-02 06:32N 35°49' E 014°33'0 0.0
2016-Feb-02 03:32N 35°49' E 014°33'0 0.0
2016-Feb-02 02:32N 35°49' E 014°33'0 0.0
2016-Feb-02 01:26N 35°49' E 014°33'0 0.0
2016-Feb-02 00:32N 35°49' E 014°33'0 0.0
2016-Feb-01 23:26N 35°49' E 014°33'0 0.0
2016-Feb-01 22:32N 35°49' E 014°33'0 0.0
2016-Feb-01 19:32N 35°49' E 014°33'1 1.1
2016-Feb-01 18:34N 35°49' E 014°34'8 8.2
2016-Feb-01 17:33N 35°48' E 014°44'48817.3
2016-Jan-31 13:26N 37°08' E 024°42'1618.3
2016-Jan-31 12:34N 37°14' E 025°01'1918.7
2016-Jan-31 11:33N 37°19' E 025°23'1717.4
2016-Jan-31 10:33N 37°28' E 025°42'144 5.4
2016-Jan-30 08:07N 39°51' E 025°47'1219.6
2016-Jan-30 07:29N 39°60' E 025°59'12814.4
2016-Jan-29 22:33N 40°53' E 028°32'6 0.5
2016-Jan-29 09:26N 40°53' E 028°41'3113.3
2016-Jan-29 07:08N 40°26' E 028°60'2 0.1
2016-Jan-28 09:28N 40°26' E 029°03'  
Track history (hours):
 
Tides and Currents Weather Stations Pressure Air Temp Water Temp Dewpoint Dewpoint Depression Visibility Wind Speed Wind Dir Waves Ship Positions

Camellia

Last reported at 2016-Feb-07 06:18 UTC. Time now 2016-Feb-08 10:18 UTC.
Position N 35°56' W 005°55'.

Length 222 m; draft 8.5 m.

Type: Ship (hazmat cat C). MMSI: 477791900.

Date/timePositionNaut miles runAvg speedWind from/ knotsBaromVisibWave heightAir tempDewpointWater temp
2016-Feb-07 06:18N 35°56' W 005°55'1317.3
2016-Feb-07 05:33N 35°58' W 005°39'1110.6
2016-Feb-07 04:33N 36°00' W 005°27'8 8.4
2016-Feb-07 03:34N 36°08' W 005°24'1 0.7
2016-Feb-07 02:28N 36°09' W 005°24'0 0.0
2016-Feb-07 01:31N 36°09' W 005°24'0 0.0
2016-Feb-06 23:13N 36°09' W 005°24'0 0.1
2016-Feb-06 22:31N 36°09' W 005°24'0 0.0
2016-Feb-06 20:07N 36°09' W 005°24'0 0.2
2016-Feb-06 19:28N 36°09' W 005°24'1 1.3
2016-Feb-06 18:33N 36°08' W 005°24'8 7.6
2016-Feb-06 17:33N 36°02' W 005°18'9 7.3
2016-Feb-06 16:18N 35°58' W 005°08'2 2.2
2016-Feb-06 15:32N 35°58' W 005°10'2 1.8
2016-Feb-06 14:33N 35°58' W 005°12'1 1.2
2016-Feb-06 13:33N 35°58' W 005°13'4 3.5
2016-Feb-06 12:33N 35°57' W 005°09'2 1.6
2016-Feb-06 11:33N 35°57' W 005°11'1 0.8
2016-Feb-06 10:33N 35°58' W 005°11'3 2.2
2016-Feb-06 09:19N 35°58' W 005°08'1 1.1
2016-Feb-06 08:32N 35°58' W 005°09'1 1.0
2016-Feb-06 07:33N 35°58' W 005°10'1 0.9
2016-Feb-06 06:33N 35°58' W 005°11'1 1.0
2016-Feb-06 05:33N 35°58' W 005°13'0 0.4
2016-Feb-06 04:33N 35°58' W 005°13'2 2.2
2016-Feb-06 03:33N 35°56' W 005°12'1 0.9
2016-Feb-06 02:33N 35°57' W 005°13'1 0.9
2016-Feb-06 01:33N 35°57' W 005°13'1 0.8
2016-Feb-06 00:33N 35°58' W 005°14'1 0.6
2016-Feb-05 23:33N 35°58' W 005°15'4 4.4
2016-Feb-05 22:34N 35°58' W 005°20'9 8.9
2016-Feb-05 21:33N 35°54' W 005°30'4 0.4
2016-Feb-05 12:19N 35°57' W 005°33'1114.2
2016-Feb-05 11:33N 36°02' W 005°21'91519.3
2016-Feb-03 12:04N 36°12' E 013°32'1119.8
2016-Feb-03 11:32N 36°06' E 013°43'2020.2
2016-Feb-03 10:33N 35°56' E 014°03'2019.8
2016-Feb-03 09:33N 35°45' E 014°24'8 7.8
2016-Feb-03 08:32N 35°49' E 014°33'0 0.0
2016-Feb-03 07:30N 35°49' E 014°33'0 0.0
2016-Feb-03 06:33N 35°49' E 014°33'0 0.0
2016-Feb-03 05:29N 35°49' E 014°33'0 0.0
2016-Feb-03 04:32N 35°49' E 014°33'0 0.0
2016-Feb-03 03:29N 35°49' E 014°33'0 0.0
2016-Feb-03 02:29N 35°49' E 014°33'0 0.0
2016-Feb-03 01:32N 35°49' E 014°33'0 0.0
2016-Feb-03 00:32N 35°49' E 014°33'0 0.0
2016-Feb-02 23:32N 35°49' E 014°33'0 0.0
2016-Feb-02 22:20N 35°49' E 014°33'0 0.0
2016-Feb-02 21:29N 35°49' E 014°33'0 0.0
2016-Feb-02 20:29N 35°49' E 014°33'0 0.0
2016-Feb-02 19:32N 35°49' E 014°33'0 0.0
2016-Feb-02 18:29N 35°49' E 014°33'0 0.0
2016-Feb-02 17:32N 35°49' E 014°33'0 0.0
2016-Feb-02 16:32N 35°49' E 014°33'0 0.0
2016-Feb-02 15:32N 35°49' E 014°33'0 0.0
2016-Feb-02 14:32N 35°49' E 014°33'0 0.0
2016-Feb-02 13:29N 35°49' E 014°33'0 0.0
2016-Feb-02 10:23N 35°49' E 014°33'0 0.0
2016-Feb-02 08:29N 35°49' E 014°33'0 0.0
2016-Feb-02 07:32N 35°49' E 014°33'0 0.0
2016-Feb-02 06:32N 35°49' E 014°33'0 0.0
2016-Feb-02 03:32N 35°49' E 014°33'0 0.0
2016-Feb-02 02:32N 35°49' E 014°33'0 0.0
2016-Feb-02 01:26N 35°49' E 014°33'0 0.0
2016-Feb-02 00:32N 35°49' E 014°33'0 0.0
2016-Feb-01 23:26N 35°49' E 014°33'0 0.0
2016-Feb-01 22:32N 35°49' E 014°33'0 0.0
2016-Feb-01 19:32N 35°49' E 014°33'1 1.1
2016-Feb-01 18:34N 35°49' E 014°34'8 8.2
2016-Feb-01 17:33N 35°48' E 014°44'48817.3
2016-Jan-31 13:26N 37°08' E 024°42'1618.3
2016-Jan-31 12:34N 37°14' E 025°01'1918.7
2016-Jan-31 11:33N 37°19' E 025°23'1717.4
2016-Jan-31 10:33N 37°28' E 025°42'144 5.4
2016-Jan-30 08:07N 39°51' E 025°47'1219.6
2016-Jan-30 07:29N 39°60' E 025°59'12814.4
2016-Jan-29 22:33N 40°53' E 028°32'6 0.5
2016-Jan-29 09:26N 40°53' E 028°41'3113.3
2016-Jan-29 07:08N 40°26' E 028°60'2 0.1
2016-Jan-28 09:28N 40°26' E 029°03'  

Dump ship's entire track history